Erving, MA (01344)

5:32 PM EDT on July 31, 2015 (GMT -0400)
NQRA-Walnut Hill Rd. | | Change Station
CLOSE
Current Station
Personal Weather Station
Location: Orange, MA
Elevation: 768 ft
Nearby Weather Stations

Elev 768 ft 42.58 °N, 72.32 °W | Updated 30 seconds ago

Partly Cloudy
Partly Cloudy
86.7 °F
Feels Like 87 °F
N
0.7
Wind Variable Wind from WNW
Gusts 4.5 mph

Today
High -- | Low -- °F
--% Chance of Precip.
Yesterday
High -- | Low -- °F
Precip. -- in
5:40 AM 8:11 PM
Full, 100% visible
Pressure 29.79 in
Visibility 10.0 miles
Clouds Scattered Clouds 7000 ft
Heat Index 87 °F
Dew Point 62 °F
Humidity 43%
Rainfall 0.00 in
Snow Depth Not available.
UV 0.0 out of 12
Pollen 4.70 out of 12
Air Quality Not available.
Flu Activity Not available.
METAR KORE 312052Z AUTO 26011G16KT 10SM SCT070 28/12 A2980 RMK AO2 SLP088 T02830117 56004

More Conditions Fewer Conditions

Pressure 29.79 in
Visibility 10.0 miles
Clouds Scattered Clouds 7000 ft
Heat Index 87 °F
Dew Point 62 °F
Humidity 43%
Rainfall 0.00 in
Snow Depth Not available.
UV 0.0 out of 12
Pollen 4.70 out of 12
Air Quality Not available.
Flu Activity Not available.
METAR KORE 312052Z AUTO 26011G16KT 10SM SCT070 28/12 A2980 RMK AO2 SLP088 T02830117 56004

More Conditions Fewer Conditions

10-Day Weather Forecast

×

Almanac

Astronomy

Jul. 31, 2015 Rise Set
Actual Time
Civil Twilight
Nautical Twilight
Astronomical Twilight
Moon
Length of Visible Light
Length of Day
Tomorrow will be .
, % of the Moon is Illuminated

Today's Extremes

State Highs State Lows

Community

WunderPhotos

Upload Photos

1,842,754 photos uploaded!

WunderBlogs® & News

Nearby

Air Quality

  Air Quality AQ Index Pollutant
Not available.

Snow Depth

Station Depth Elevation

Earthquake Activity

City Distance Mag. Time & Date
Minimum magnitude displayed is 2.5.

Coastal Water Temperatures

Place Temperature

Stations

Nearby Weather Stations

Station Location Temp. Windchill Dew Point Humidity Wind Precip. Elev Updated Type